Colby, KS

6:42 PM CST on November 21, 2019 (GMT -0600)
Shaltz

Weather History for KCBK - October, 2019

Change the Weather History Date:

Friday, October 18, 2019

  Actual Average (WUND) Record (WUND)
Temperature  
Mean Temperature 62 °F -  
Max Temperature 82 °F - - (-1)
Min Temperature 42 °F - - (-1)
Degree Days  
Heating Degree Days 3    
Growing Degree Days 12 (Base 50)    
Moisture  
Dew Point 28 °F    
Average Humidity 33    
Maximum Humidity 71    
Minimum Humidity 10    
Precipitation  
Precipitation 0.00 in - - ()
Sea Level Pressure  
Sea Level Pressure 29.60 in    
Wind  
Wind Speed 14 mph (WSW)    
Max Wind Speed 26 mph    
Max Gust Speed 34 mph    
Visibility 10 miles    
Events      
Averages and records for this station are not official NWS values.
T = Trace of Precipitation, MM = Missing Value Source: NWS Daily Summary

Daily Weather History Graph

Daily Weather History Graph

Search for Another Location

Airport or City:

Astronomy

Oct. 18, 2019 Rise Set
Actual Time 7:57 AM CDT 7:01 PM CDT
Civil Twilight 7:29 AM CDT 7:28 PM CDT
Nautical Twilight 6:58 AM CDT 7:59 PM CDT
Astronomical Twilight 6:27 AM CDT 8:30 PM CDT
Moon 10:20 PM CDT (10/18) 12:30 PM CDT (10/18)
Length of Visible Light 11h 58m
Length of Day
11h 04m
Waning Gibbous, 78% of the Moon is Illuminated
Oct 18
Waning Gibbous
Oct 21
Last Quarter
Oct 27
New
Nov 4
First Quarter
Nov 12
Full

Hourly Weather History & Observations

Time (CDT) Temp. Windchill Dew Point Humidity Pressure Visibility Wind Dir Wind Speed Gust Speed Precip Events Conditions
12:15 AM 60.8 °F - 28.4 °F 29% 29.59 in 10.0 mi South 19.6 mph 25.3 mph N/A   Clear
12:35 AM 62.6 °F - 30.2 °F 30% 29.59 in 10.0 mi South 19.6 mph 26.5 mph N/A   Clear
12:55 AM 60.8 °F - 30.2 °F 31% 29.59 in 10.0 mi South 18.4 mph 24.2 mph N/A   Clear
1:15 AM 60.8 °F - 30.2 °F 31% 29.57 in 10.0 mi South 18.4 mph 25.3 mph N/A   Clear
1:35 AM 60.8 °F - 32.0 °F 34% 29.57 in 10.0 mi South 18.4 mph 24.2 mph N/A   Clear
1:55 AM 60.8 °F - 32.0 °F 34% 29.57 in 10.0 mi South 16.1 mph 20.7 mph N/A   Clear
2:15 AM 60.8 °F - 32.0 °F 34% 29.56 in 10.0 mi South 12.7 mph 23.0 mph N/A   Clear
2:35 AM 59.0 °F - 32.0 °F 36% 29.56 in 10.0 mi South 12.7 mph 17.3 mph N/A   Clear
2:55 AM 59.0 °F - 32.0 °F 36% 29.55 in 10.0 mi South 15.0 mph 21.9 mph N/A   Clear
3:15 AM 59.0 °F - 32.0 °F 36% 29.54 in 10.0 mi South 15.0 mph 20.7 mph N/A   Clear
3:35 AM 57.2 °F - 32.0 °F 38% 29.53 in 10.0 mi South 15.0 mph 21.9 mph N/A   Clear
3:55 AM 55.4 °F - 32.0 °F 41% 29.52 in 10.0 mi South 18.4 mph 25.3 mph N/A   Clear
4:35 AM 55.4 °F - 30.2 °F 38% 29.51 in 10.0 mi South 12.7 mph 20.7 mph N/A   Clear
4:55 AM 53.6 °F - 30.2 °F 41% 29.50 in 10.0 mi SSW 13.8 mph 20.7 mph N/A   Clear
5:15 AM 53.6 °F - 30.2 °F 41% 29.50 in 10.0 mi SSW 13.8 mph 20.7 mph N/A   Clear
5:35 AM 51.8 °F - 30.2 °F 44% 29.50 in 10.0 mi SSW 10.4 mph 17.3 mph N/A   Clear
5:55 AM 51.8 °F - 28.4 °F 41% 29.50 in 10.0 mi SW 13.8 mph 17.3 mph N/A   Clear
6:15 AM 50.0 °F - 28.4 °F 43% 29.51 in 10.0 mi SW 10.4 mph - N/A   Clear
6:35 AM 48.2 °F - 24.8 °F 40% 29.52 in 10.0 mi SW 12.7 mph - N/A   Clear
6:55 AM 46.4 °F 41.5 °F 23.0 °F 40% 29.52 in 10.0 mi WSW 10.4 mph - N/A   Clear
7:15 AM 44.6 °F 40.2 °F 23.0 °F 43% 29.52 in 10.0 mi WSW 8.1 mph - N/A   Clear
7:35 AM 42.8 °F 39.3 °F 23.0 °F 46% 29.52 in 10.0 mi SW 5.8 mph - N/A   Clear
7:55 AM 42.8 °F 38.0 °F 21.2 °F 42% 29.53 in 10.0 mi WSW 8.1 mph - N/A   Clear
8:15 AM 44.6 °F 40.7 °F 21.2 °F 39% 29.53 in 10.0 mi SW 6.9 mph - N/A   Clear
8:35 AM 50.0 °F - 21.2 °F 32% 29.54 in 10.0 mi SW 9.2 mph - N/A   Clear
8:55 AM 51.8 °F - 21.2 °F 30% 29.55 in 10.0 mi SSW 6.9 mph - N/A   Clear
9:15 AM 55.4 °F - 21.2 °F 26% 29.56 in 10.0 mi SW 9.2 mph - N/A   Clear
9:35 AM 59.0 °F - 21.2 °F 23% 29.56 in 10.0 mi WSW 8.1 mph - N/A   Clear
9:55 AM 62.6 °F - 19.4 °F 19% 29.56 in 10.0 mi WSW 9.2 mph - N/A   Clear
10:15 AM 68.0 °F - 19.4 °F 16% 29.56 in 10.0 mi WSW 8.1 mph - N/A   Clear
10:35 AM 71.6 °F - 19.4 °F 14% 29.56 in 10.0 mi WSW 6.9 mph - N/A   Clear
10:55 AM 75.2 °F - 17.6 °F 11% 29.56 in 10.0 mi WSW 10.4 mph - N/A   Clear
11:55 AM 80.6 °F - 19.4 °F 10% 29.55 in 10.0 mi South 6.9 mph - N/A   Unknown
12:15 PM 80.6 °F - 19.4 °F 10% 29.55 in 10.0 mi South 8.1 mph - N/A   Clear
12:35 PM 80.6 °F - 19.4 °F 10% 29.54 in 10.0 mi South 8.1 mph - N/A   Clear
12:55 PM 80.6 °F - 19.4 °F 10% 29.54 in 10.0 mi SE 5.8 mph - N/A   Clear
1:15 PM 82.4 °F - 19.4 °F 10% 29.54 in 10.0 mi SSE 5.8 mph - N/A   Clear
1:35 PM 82.4 °F - 19.4 °F 10% 29.52 in 10.0 mi South 5.8 mph 9.2 mph N/A   Clear
1:55 PM 82.4 °F - 19.4 °F 10% 29.52 in 10.0 mi South 6.9 mph - N/A   Clear
2:15 PM 82.4 °F - 23.0 °F 11% 29.51 in 10.0 mi SE 10.4 mph - N/A   Clear
2:35 PM 82.4 °F - 23.0 °F 11% 29.50 in 10.0 mi East 4.6 mph - N/A   Clear
3:15 PM 80.6 °F - 23.0 °F 12% 29.51 in 10.0 mi North 20.7 mph 26.5 mph N/A   Clear
3:35 PM 78.8 °F - 23.0 °F 13% 29.52 in 10.0 mi North 19.6 mph 27.6 mph N/A   Clear
3:55 PM 77.0 °F - 24.8 °F 14% 29.53 in 10.0 mi North 25.3 mph 31.1 mph N/A   Clear
4:15 PM 73.4 °F - 28.4 °F 19% 29.54 in 10.0 mi North 21.9 mph 31.1 mph N/A   Clear
4:35 PM 71.6 °F - 30.2 °F 22% 29.57 in 10.0 mi North 25.3 mph 31.1 mph N/A   Clear
4:55 PM 71.6 °F - 30.2 °F 22% 29.58 in 10.0 mi North 21.9 mph 31.1 mph N/A   Clear
5:15 PM 69.8 °F - 32.0 °F 25% 29.59 in 10.0 mi NNW 20.7 mph 34.5 mph N/A   Clear
5:55 PM 68.0 °F - 32.0 °F 26% 29.61 in 10.0 mi North 23.0 mph 33.4 mph N/A   Clear
6:15 PM 64.4 °F - 32.0 °F 30% 29.63 in 10.0 mi North 18.4 mph 32.2 mph N/A   Clear
6:35 PM 64.4 °F - 32.0 °F 30% 29.64 in 10.0 mi North 20.7 mph 31.1 mph N/A   Scattered Clouds
6:55 PM 62.6 °F - 32.0 °F 32% 29.65 in 10.0 mi North 26.5 mph 32.2 mph N/A   Scattered Clouds
7:15 PM 60.8 °F - 32.0 °F 34% 29.69 in 10.0 mi North 23.0 mph 31.1 mph N/A   Clear
7:35 PM 60.8 °F - 32.0 °F 34% 29.73 in 10.0 mi North 17.3 mph 27.6 mph N/A   Scattered Clouds
7:55 PM 60.8 °F - 32.0 °F 34% 29.77 in 10.0 mi North 13.8 mph 20.7 mph N/A   Overcast
8:15 PM 59.0 °F - 33.8 °F 39% 29.77 in 10.0 mi North 15.0 mph 25.3 mph N/A   Overcast
8:35 PM 53.6 °F - 37.4 °F 54% 29.76 in 10.0 mi North 12.7 mph 18.4 mph N/A   Overcast
8:55 PM 53.6 °F - 37.4 °F 54% 29.77 in 10.0 mi North 11.5 mph - N/A   Scattered Clouds
9:15 PM 53.6 °F - 37.4 °F 54% 29.77 in 10.0 mi North 8.1 mph - N/A   Mostly Cloudy
9:35 PM 53.6 °F - 37.4 °F 54% 29.74 in 10.0 mi North 12.7 mph - N/A   Mostly Cloudy
9:55 PM 53.6 °F - 37.4 °F 54% 29.74 in 10.0 mi North 11.5 mph - N/A   Clear
10:15 PM 51.8 °F - 37.4 °F 58% 29.76 in 10.0 mi North 8.1 mph - N/A   Clear
10:35 PM 50.0 °F - 37.4 °F 62% 29.78 in 10.0 mi North 8.1 mph - N/A   Mostly Cloudy
10:55 PM 50.0 °F - 37.4 °F 62% 29.80 in 10.0 mi North 6.9 mph - N/A   Scattered Clouds
11:15 PM 48.2 °F - 37.4 °F 66% 29.81 in 10.0 mi NNW 6.9 mph - N/A   Scattered Clouds
11:35 PM 46.4 °F 42.9 °F 37.4 °F 71% 29.83 in 10.0 mi NW 6.9 mph - N/A   Overcast
11:55 PM 46.4 °F 43.5 °F 37.4 °F 71% 29.84 in 10.0 mi NW 5.8 mph - N/A   Overcast